createdAt,value
2022-07-31T00:00:26.570Z,82.33
2022-07-31T00:02:55.019Z,88.43
2022-07-31T00:05:23.372Z,84.80
2022-07-31T00:07:51.653Z,85.20
2022-07-31T00:10:20.114Z,83.33
2022-07-31T00:12:48.347Z,82.67
2022-07-31T00:15:16.582Z,82.17
2022-07-31T00:17:46.294Z,84.43
2022-07-31T00:20:15.498Z,82.83
2022-07-31T00:22:44.018Z,87.20
2022-07-31T00:25:12.731Z,83.03
2022-07-31T00:27:41.138Z,83.30
2022-07-31T00:30:12.411Z,82.50
2022-07-31T00:32:40.708Z,86.13
2022-07-31T00:35:12.219Z,83.23
2022-07-31T00:37:41.455Z,83.03
2022-07-31T00:40:11.337Z,85.50
2022-07-31T00:42:39.489Z,83.47
2022-07-31T00:45:08.554Z,81.63
2022-07-31T00:47:37.439Z,82.87
2022-07-31T00:50:08.346Z,83.43
2022-07-31T00:52:39.023Z,83.10
2022-07-31T00:55:07.705Z,81.77
2022-07-31T00:57:36.017Z,85.37
2022-07-31T01:00:04.452Z,82.13
2022-07-31T01:02:32.731Z,82.00
2022-07-31T01:05:00.956Z,87.83
2022-07-31T01:07:29.155Z,84.27
2022-07-31T01:09:59.185Z,82.10
2022-07-31T01:12:32.703Z,81.90
2022-07-31T01:15:03.819Z,82.17
2022-07-31T01:17:32.922Z,81.63
2022-07-31T01:20:01.385Z,82.83
2022-07-31T01:22:39.482Z,82.10
2022-07-31T01:25:13.123Z,83.37
2022-07-31T01:27:51.942Z,84.07
2022-07-31T01:30:21.901Z,81.27
2022-07-31T01:32:50.848Z,82.43
2022-07-31T01:35:22.386Z,81.37
2022-07-31T01:37:54.067Z,82.10
2022-07-31T01:40:25.202Z,81.87
2022-07-31T01:42:57.093Z,81.87
2022-07-31T01:45:28.086Z,80.93
2022-07-31T01:47:57.661Z,82.00
2022-07-31T01:50:43.489Z,85.43
2022-07-31T01:53:14.670Z,81.03
2022-07-31T01:56:01.913Z,81.43
2022-07-31T01:58:35.057Z,82.90
2022-07-31T02:01:05.545Z,84.10
2022-07-31T02:03:43.388Z,81.57
2022-07-31T02:06:14.845Z,82.27
2022-07-31T02:08:44.077Z,82.63
2022-07-31T02:11:13.989Z,83.70
2022-07-31T02:13:42.454Z,83.43
2022-07-31T02:16:12.655Z,82.47
2022-07-31T02:18:41.394Z,83.00
2022-07-31T02:21:10.331Z,81.00
2022-07-31T02:23:38.818Z,82.17
2022-07-31T02:26:07.587Z,81.67
2022-07-31T02:28:37.958Z,83.93
2022-07-31T02:31:07.137Z,82.73
2022-07-31T02:33:36.911Z,83.90
2022-07-31T02:36:06.089Z,81.70
2022-07-31T02:38:35.799Z,84.00
2022-07-31T02:41:05.613Z,85.33
2022-07-31T02:43:35.269Z,79.47
2022-07-31T02:46:03.580Z,85.50
2022-07-31T02:48:31.980Z,85.23
2022-07-31T02:51:01.545Z,85.17
2022-07-31T02:53:30.299Z,83.83
2022-07-31T02:55:58.645Z,83.33
2022-07-31T02:58:27.216Z,88.03
2022-07-31T03:01:01.983Z,85.63
2022-07-31T03:03:30.383Z,83.10
2022-07-31T03:05:58.809Z,80.63
2022-07-31T03:08:28.602Z,81.30
2022-07-31T03:10:56.895Z,92.60
2022-07-31T03:13:27.345Z,88.00
2022-07-31T03:15:56.203Z,87.70
2022-07-31T03:18:24.587Z,84.97
2022-07-31T03:20:53.002Z,83.47
2022-07-31T03:23:22.264Z,83.40
2022-07-31T03:25:52.126Z,91.47
2022-07-31T03:28:20.685Z,87.30
2022-07-31T03:30:56.238Z,84.37
2022-07-31T03:33:25.172Z,84.60
2022-07-31T03:35:54.204Z,83.37
2022-07-31T03:38:41.724Z,87.53
2022-07-31T03:41:11.986Z,83.20
2022-07-31T03:43:43.745Z,87.60
2022-07-31T03:46:15.857Z,84.27
2022-07-31T03:48:44.085Z,84.50
2022-07-31T03:51:13.202Z,83.77
2022-07-31T03:53:41.473Z,82.93
2022-07-31T03:56:09.897Z,81.20
2022-07-31T03:58:39.663Z,84.63
2022-07-31T04:01:10.544Z,86.03
2022-07-31T04:03:40.556Z,83.73
2022-07-31T04:06:09.033Z,83.30
2022-07-31T04:08:37.261Z,82.50
2022-07-31T04:11:05.466Z,79.73
2022-07-31T04:13:33.696Z,84.57
2022-07-31T04:16:03.311Z,85.37
2022-07-31T04:18:31.541Z,85.37
2022-07-31T04:20:59.817Z,85.13
2022-07-31T04:23:32.488Z,89.23
2022-07-31T04:26:00.988Z,85.77
2022-07-31T04:28:29.194Z,84.33
2022-07-31T04:30:57.413Z,94.03
2022-07-31T04:33:27.201Z,85.30
2022-07-31T04:35:55.469Z,85.37
2022-07-31T04:38:23.670Z,91.17
2022-07-31T04:40:52.075Z,89.70
2022-07-31T04:43:20.320Z,83.83
2022-07-31T04:45:48.501Z,100.20
2022-07-31T04:48:16.727Z,119.43
2022-07-31T04:50:46.269Z,92.40
2022-07-31T04:53:14.479Z,85.17
2022-07-31T04:56:03.458Z,90.20
2022-07-31T04:58:31.763Z,83.20
2022-07-31T05:00:59.995Z,88.57
2022-07-31T05:03:28.222Z,90.90
2022-07-31T05:05:57.815Z,86.07
2022-07-31T05:08:26.046Z,94.17
2022-07-31T05:11:11.716Z,93.20
2022-07-31T05:13:39.914Z,105.80
2022-07-31T05:16:12.583Z,98.60
2022-07-31T05:18:40.808Z,92.90
2022-07-31T05:21:10.390Z,95.40
2022-07-31T05:23:38.635Z,92.93
2022-07-31T05:26:06.935Z,102.10
2022-07-31T05:28:35.373Z,98.73
2022-07-31T05:31:03.604Z,86.63
2022-07-31T05:33:31.836Z,96.43
2022-07-31T05:36:00.495Z,97.67
2022-07-31T05:38:30.167Z,93.33
2022-07-31T05:40:58.377Z,91.03
2022-07-31T05:43:26.635Z,100.37
2022-07-31T05:45:54.825Z,95.40
2022-07-31T05:48:23.205Z,88.00
2022-07-31T05:50:51.888Z,90.60
2022-07-31T05:53:20.887Z,90.17
2022-07-31T05:55:53.738Z,86.10
2022-07-31T05:58:22.012Z,94.83
2022-07-31T06:00:51.214Z,93.97
2022-07-31T06:03:24.239Z,97.60
2022-07-31T06:05:52.822Z,87.20
2022-07-31T06:08:21.216Z,95.50
2022-07-31T06:10:50.843Z,96.97
2022-07-31T06:13:19.420Z,99.83
2022-07-31T06:15:49.569Z,94.63
2022-07-31T06:18:17.859Z,94.63
2022-07-31T06:20:46.226Z,93.70
2022-07-31T06:23:19.936Z,88.07
2022-07-31T06:25:54.162Z,93.60
2022-07-31T06:28:29.672Z,88.33
2022-07-31T06:31:06.071Z,98.07
2022-07-31T06:33:37.798Z,95.47
2022-07-31T06:36:06.553Z,96.80
2022-07-31T06:38:34.721Z,98.47
2022-07-31T06:41:04.286Z,89.17
2022-07-31T06:43:33.391Z,88.07
2022-07-31T06:46:01.649Z,93.70
2022-07-31T06:48:30.026Z,92.90
2022-07-31T06:53:46.520Z,89.30
2022-07-31T06:56:16.142Z,90.70
2022-07-31T06:58:44.376Z,92.93
2022-07-31T07:01:12.653Z,91.77
2022-07-31T07:03:41.350Z,91.60
2022-07-31T07:06:09.743Z,92.33
2022-07-31T07:08:38.040Z,90.83
2022-07-31T07:11:10.349Z,117.13
2022-07-31T07:13:46.367Z,93.17
2022-07-31T07:16:14.930Z,90.13
2022-07-31T07:18:44.073Z,89.07
2022-07-31T07:21:12.385Z,94.17
2022-07-31T07:23:40.706Z,90.40
2022-07-31T07:26:09.406Z,86.97
2022-07-31T07:28:38.040Z,89.87
2022-07-31T07:31:07.918Z,98.03
2022-07-31T07:33:40.227Z,93.47
2022-07-31T07:36:22.834Z,87.90
2022-07-31T07:38:53.370Z,91.23
2022-07-31T07:41:21.816Z,91.57
2022-07-31T07:43:52.381Z,95.27
2022-07-31T07:46:22.741Z,96.10
2022-07-31T07:48:51.910Z,95.87
2022-07-31T07:51:20.524Z,92.33
2022-07-31T07:53:48.789Z,97.83
2022-07-31T07:56:17.063Z,93.47
2022-07-31T07:58:45.246Z,91.47
2022-07-31T08:01:13.577Z,96.57
2022-07-31T08:03:49.467Z,96.40
2022-07-31T08:06:20.033Z,96.90
2022-07-31T08:08:48.266Z,100.63
2022-07-31T08:11:17.027Z,95.57
2022-07-31T08:13:50.192Z,92.50
2022-07-31T08:16:19.214Z,92.63
2022-07-31T08:18:49.008Z,97.63
2022-07-31T08:21:17.256Z,94.73
2022-07-31T08:23:45.507Z,97.83
2022-07-31T08:26:13.956Z,96.50
2022-07-31T08:28:50.571Z,95.43
2022-07-31T08:31:19.441Z,101.07
2022-07-31T08:33:49.041Z,91.23
2022-07-31T08:36:17.334Z,92.60
2022-07-31T08:38:45.588Z,95.63
2022-07-31T08:41:15.560Z,93.47
2022-07-31T08:44:01.801Z,97.57
2022-07-31T08:46:33.081Z,92.07
2022-07-31T08:49:03.800Z,96.23
2022-07-31T08:51:32.855Z,96.17
2022-07-31T08:54:20.826Z,98.63
2022-07-31T08:56:52.302Z,95.03
2022-07-31T08:59:20.839Z,97.80
2022-07-31T09:01:49.280Z,95.93
2022-07-31T09:04:19.361Z,95.53
2022-07-31T09:06:47.712Z,98.17
2022-07-31T09:09:17.804Z,103.30
2022-07-31T09:11:49.203Z,97.60
2022-07-31T09:14:25.791Z,95.37
2022-07-31T09:16:56.596Z,94.77
2022-07-31T09:19:53.543Z,93.33
2022-07-31T09:22:22.394Z,94.83
2022-07-31T09:24:50.722Z,97.30
2022-07-31T09:27:19.525Z,95.10
2022-07-31T09:29:49.680Z,94.47
2022-07-31T09:32:18.837Z,102.30
2022-07-31T09:34:49.395Z,94.97
2022-07-31T09:37:18.788Z,96.57
2022-07-31T09:39:52.097Z,94.03
2022-07-31T09:42:21.488Z,98.20
2022-07-31T09:44:50.494Z,98.70
2022-07-31T09:47:22.991Z,98.33
2022-07-31T09:49:56.535Z,94.43
2022-07-31T09:52:24.769Z,106.77
2022-07-31T09:55:02.004Z,94.30
2022-07-31T09:57:30.709Z,97.77
2022-07-31T09:59:58.929Z,97.97
2022-07-31T10:02:27.529Z,98.63
2022-07-31T10:04:59.633Z,103.43
2022-07-31T10:07:32.052Z,99.23
2022-07-31T10:10:01.997Z,99.37
2022-07-31T10:12:30.955Z,97.83
2022-07-31T10:15:03.905Z,98.10
2022-07-31T10:17:36.166Z,104.10
2022-07-31T10:20:07.430Z,98.03
2022-07-31T10:22:36.937Z,97.73
2022-07-31T10:25:05.337Z,95.77
2022-07-31T10:27:34.026Z,93.10
2022-07-31T10:30:08.804Z,101.97
2022-07-31T10:32:37.315Z,95.53
2022-07-31T10:35:08.084Z,94.13
2022-07-31T10:37:38.949Z,91.23
2022-07-31T10:40:10.606Z,92.47
2022-07-31T10:42:43.574Z,92.80
2022-07-31T10:45:13.782Z,90.83
2022-07-31T10:47:48.896Z,89.40
2022-07-31T10:50:23.732Z,89.20
2022-07-31T10:52:53.449Z,91.37
2022-07-31T10:55:27.033Z,91.30
2022-07-31T10:57:57.481Z,92.40
2022-07-31T11:00:29.647Z,92.67
2022-07-31T11:02:58.546Z,93.87
2022-07-31T11:05:28.309Z,93.73
2022-07-31T11:08:02.193Z,97.03
2022-07-31T11:10:30.672Z,92.97
2022-07-31T11:13:04.285Z,93.57
2022-07-31T11:15:33.638Z,91.37
2022-07-31T11:18:20.215Z,91.63
2022-07-31T11:21:13.617Z,94.80
2022-07-31T11:24:02.333Z,100.07
2022-07-31T11:26:32.403Z,89.27
2022-07-31T11:29:58.943Z,99.43
2022-07-31T11:32:02.845Z,102.73
2022-07-31T11:34:34.075Z,93.13
2022-07-31T11:37:06.560Z,94.23
2022-07-31T11:39:37.114Z,92.97
2022-07-31T11:42:07.549Z,96.47
2022-07-31T11:44:36.274Z,95.77
2022-07-31T11:48:09.637Z,96.57
2022-07-31T11:50:01.862Z,93.13
2022-07-31T11:52:37.229Z,101.43
2022-07-31T11:55:09.055Z,93.03
2022-07-31T11:57:51.693Z,91.23
2022-07-31T12:00:29.279Z,92.33
2022-07-31T12:02:58.858Z,93.23
2022-07-31T12:05:38.000Z,92.90
2022-07-31T12:08:09.116Z,97.07
2022-07-31T12:10:37.474Z,94.90
2022-07-31T12:13:06.011Z,96.37
2022-07-31T12:15:34.266Z,99.67
2022-07-31T12:18:06.286Z,95.13
2022-07-31T12:20:36.310Z,94.60
2022-07-31T12:23:06.179Z,102.57
2022-07-31T12:25:46.490Z,95.50
2022-07-31T12:28:15.468Z,96.60
2022-07-31T12:30:44.039Z,100.20
2022-07-31T12:33:13.219Z,98.60
2022-07-31T12:35:56.131Z,98.83
2022-07-31T12:38:47.555Z,97.93
2022-07-31T12:41:15.468Z,94.20
2022-07-31T12:43:50.915Z,94.37
2022-07-31T12:46:20.483Z,94.70
2022-07-31T12:48:48.863Z,95.90
2022-07-31T12:51:20.498Z,99.77
2022-07-31T12:54:09.183Z,99.13
2022-07-31T12:56:39.367Z,95.67
2022-07-31T12:59:07.954Z,95.03
2022-07-31T13:01:36.796Z,101.83
2022-07-31T13:04:07.948Z,105.33
2022-07-31T13:06:48.726Z,103.40
2022-07-31T13:09:17.201Z,99.57
2022-07-31T13:11:48.375Z,101.80
2022-07-31T13:14:17.303Z,91.20
2022-07-31T13:16:45.574Z,95.33
2022-07-31T13:19:14.028Z,98.17
2022-07-31T13:21:48.940Z,99.37
2022-07-31T13:24:18.290Z,102.00
2022-07-31T13:26:47.876Z,102.20
2022-07-31T13:29:16.431Z,108.53
2022-07-31T13:31:44.672Z,98.40
2022-07-31T13:34:13.806Z,92.37
2022-07-31T13:36:42.041Z,99.40
2022-07-31T13:39:10.817Z,99.43
2022-07-31T13:41:39.818Z,97.70
2022-07-31T13:44:10.009Z,99.97
2022-07-31T13:46:38.727Z,101.50
2022-07-31T13:49:10.234Z,102.13
2022-07-31T13:51:38.948Z,99.13
2022-07-31T13:54:07.319Z,103.53
2022-07-31T13:56:42.635Z,100.03
2022-07-31T13:59:14.206Z,96.23
2022-07-31T14:02:04.280Z,96.63
2022-07-31T14:04:32.868Z,96.33
2022-07-31T14:07:07.260Z,97.70
2022-07-31T14:09:36.049Z,99.93
2022-07-31T14:12:05.783Z,94.57
2022-07-31T14:14:35.736Z,97.23
2022-07-31T14:17:03.943Z,95.70
2022-07-31T14:19:42.068Z,98.37
2022-07-31T14:22:12.951Z,102.17
2022-07-31T14:24:41.343Z,96.73
2022-07-31T14:27:10.344Z,95.23
2022-07-31T14:29:39.970Z,92.73
2022-07-31T14:32:08.722Z,98.17
2022-07-31T14:34:37.242Z,100.47
2022-07-31T14:37:05.654Z,96.33
2022-07-31T14:39:34.103Z,99.77
2022-07-31T14:42:02.693Z,97.83
2022-07-31T14:44:31.349Z,96.03
2022-07-31T14:47:00.997Z,97.20
2022-07-31T14:50:09.968Z,98.13
2022-07-31T14:52:17.898Z,93.70
2022-07-31T14:54:46.104Z,93.60
2022-07-31T14:57:19.925Z,93.40
2022-07-31T14:59:50.475Z,92.37
2022-07-31T15:02:22.721Z,93.87
2022-07-31T15:04:51.587Z,92.13
2022-07-31T15:07:38.455Z,96.20
2022-07-31T15:10:09.030Z,91.93
2022-07-31T15:12:37.216Z,95.03
2022-07-31T15:15:05.843Z,94.37
2022-07-31T15:17:35.565Z,98.97
2022-07-31T15:20:03.809Z,99.40
2022-07-31T15:22:32.033Z,95.23
2022-07-31T15:25:00.310Z,101.07
2022-07-31T15:27:28.530Z,95.13
2022-07-31T15:30:04.209Z,99.70
2022-07-31T15:32:37.506Z,95.47
2022-07-31T15:35:06.666Z,98.60
2022-07-31T15:37:35.720Z,92.77
2022-07-31T15:40:11.398Z,95.50
2022-07-31T15:42:41.790Z,90.77
2022-07-31T15:45:10.807Z,100.33
2022-07-31T15:47:40.868Z,100.60
2022-07-31T15:50:11.041Z,98.27
2022-07-31T15:52:39.345Z,95.77
2022-07-31T15:55:08.254Z,99.37
2022-07-31T15:57:36.981Z,96.37
2022-07-31T16:00:06.335Z,95.97
2022-07-31T16:02:34.566Z,97.63
2022-07-31T16:05:12.078Z,96.90
2022-07-31T16:08:31.807Z,94.30
2022-07-31T16:10:39.069Z,92.97
2022-07-31T16:13:07.302Z,92.47
2022-07-31T16:15:35.710Z,91.53
2022-07-31T16:18:04.764Z,95.47
2022-07-31T16:20:34.443Z,92.87
2022-07-31T16:23:03.123Z,97.93
2022-07-31T16:25:34.740Z,93.40
2022-07-31T16:28:03.578Z,95.40
2022-07-31T16:30:31.913Z,94.40
2022-07-31T16:33:00.238Z,96.67
2022-07-31T16:35:28.450Z,92.70
2022-07-31T16:37:58.040Z,94.03
2022-07-31T16:40:29.808Z,94.93
2022-07-31T16:43:00.829Z,100.83
2022-07-31T16:45:29.695Z,96.73
2022-07-31T16:47:58.070Z,98.03
2022-07-31T16:50:26.461Z,101.33
2022-07-31T16:52:55.384Z,101.27
2022-07-31T16:55:59.827Z,91.47
2022-07-31T16:58:14.159Z,101.63
2022-07-31T17:00:42.477Z,100.23
2022-07-31T17:03:59.130Z,97.60
2022-07-31T17:05:59.158Z,93.43
2022-07-31T17:08:28.889Z,95.43
2022-07-31T17:10:58.688Z,96.53
2022-07-31T17:13:27.122Z,96.37
2022-07-31T17:15:55.450Z,98.13
2022-07-31T17:18:25.330Z,104.03
2022-07-31T17:20:55.981Z,99.37
2022-07-31T17:23:43.306Z,101.73
2022-07-31T17:26:21.654Z,95.33
2022-07-31T17:28:51.249Z,94.23
2022-07-31T17:31:19.656Z,104.33
2022-07-31T17:33:55.836Z,90.80
2022-07-31T17:36:29.216Z,92.33
2022-07-31T17:38:57.904Z,103.43
2022-07-31T17:41:27.567Z,89.20
2022-07-31T17:43:56.146Z,99.40
2022-07-31T17:46:28.218Z,93.60
2022-07-31T17:49:03.693Z,93.67
2022-07-31T17:51:32.111Z,94.07
2022-07-31T17:54:00.730Z,92.73
2022-07-31T17:56:31.271Z,94.20
2022-07-31T17:59:04.661Z,91.00
2022-07-31T18:01:33.941Z,92.80
2022-07-31T18:04:02.634Z,91.83
2022-07-31T18:06:30.927Z,93.10
2022-07-31T18:08:59.503Z,96.17
2022-07-31T18:11:30.133Z,95.67
2022-07-31T18:14:01.066Z,93.33
2022-07-31T18:16:32.036Z,93.00
2022-07-31T18:19:00.465Z,93.67
2022-07-31T18:21:28.805Z,93.57
2022-07-31T18:23:59.012Z,94.03
2022-07-31T18:26:31.852Z,89.77
2022-07-31T18:29:00.297Z,91.40
2022-07-31T18:31:34.146Z,91.23
2022-07-31T18:34:04.195Z,91.93
2022-07-31T18:36:32.782Z,99.13
2022-07-31T18:39:01.443Z,100.13
2022-07-31T18:41:29.818Z,90.77
2022-07-31T18:43:59.933Z,89.00
2022-07-31T18:46:28.470Z,88.47
2022-07-31T18:48:57.289Z,87.40
2022-07-31T18:51:25.930Z,87.73
2022-07-31T18:53:54.899Z,89.67
2022-07-31T18:56:23.688Z,98.20
2022-07-31T18:58:52.128Z,97.97
2022-07-31T19:01:21.792Z,90.80
2022-07-31T19:03:50.121Z,89.37
2022-07-31T19:06:18.322Z,86.73
2022-07-31T19:08:49.315Z,95.10
2022-07-31T19:11:17.534Z,88.90
2022-07-31T19:13:45.782Z,96.63
2022-07-31T19:16:14.461Z,87.50
2022-07-31T19:18:45.509Z,100.17
2022-07-31T19:21:23.940Z,88.40
2022-07-31T19:24:07.100Z,86.57
2022-07-31T19:26:35.444Z,87.60
2022-07-31T19:29:04.025Z,88.63
2022-07-31T19:31:32.260Z,96.60
2022-07-31T19:34:01.878Z,87.17
2022-07-31T19:36:30.267Z,91.83
2022-07-31T19:38:58.538Z,90.00
2022-07-31T19:41:26.893Z,86.70
2022-07-31T19:43:55.293Z,85.90
2022-07-31T19:46:23.595Z,86.03
2022-07-31T19:48:54.417Z,87.90
2022-07-31T19:51:26.940Z,85.93
2022-07-31T19:53:56.542Z,84.73
2022-07-31T19:56:24.938Z,86.23
2022-07-31T20:01:59.938Z,91.77
2022-07-31T20:04:30.476Z,86.33
2022-07-31T20:07:20.492Z,93.90
2022-07-31T20:09:49.818Z,83.97
2022-07-31T20:12:18.909Z,86.20
2022-07-31T20:14:51.634Z,84.80
2022-07-31T20:17:20.321Z,86.47
2022-07-31T20:20:14.976Z,103.10
2022-07-31T20:22:40.229Z,87.23
2022-07-31T20:25:19.492Z,89.67
2022-07-31T20:27:48.936Z,88.07
2022-07-31T20:30:21.674Z,95.13
2022-07-31T20:32:49.954Z,91.33
2022-07-31T20:35:33.093Z,89.90
2022-07-31T20:38:13.991Z,88.93
2022-07-31T20:40:52.755Z,101.20
2022-07-31T20:43:22.395Z,101.20
2022-07-31T20:45:50.760Z,86.07
2022-07-31T20:48:19.012Z,87.07
2022-07-31T20:50:48.317Z,91.27
2022-07-31T20:53:19.220Z,88.50
2022-07-31T20:55:49.803Z,92.23
2022-07-31T20:58:18.522Z,87.87
2022-07-31T21:00:47.524Z,97.07
2022-07-31T21:03:16.068Z,85.70
2022-07-31T21:05:44.306Z,87.93
2022-07-31T21:08:13.092Z,93.67
2022-07-31T21:10:43.171Z,88.07
2022-07-31T21:13:11.520Z,87.83
2022-07-31T21:15:42.143Z,85.87
2022-07-31T21:18:12.683Z,91.10
2022-07-31T21:20:52.142Z,90.27
2022-07-31T21:23:21.570Z,93.53
2022-07-31T21:25:51.627Z,86.53
2022-07-31T21:28:20.410Z,88.67
2022-07-31T21:30:48.935Z,86.27
2022-07-31T21:33:18.121Z,94.20
2022-07-31T21:35:47.302Z,87.67
2022-07-31T21:38:16.252Z,89.07
2022-07-31T21:40:44.962Z,89.70
2022-07-31T21:43:18.636Z,87.83
2022-07-31T21:45:57.245Z,86.53
2022-07-31T21:48:29.289Z,86.03
2022-07-31T21:50:57.828Z,105.07
2022-07-31T21:53:26.613Z,88.07
2022-07-31T21:55:55.020Z,92.17
2022-07-31T21:58:24.790Z,88.23
2022-07-31T22:00:53.250Z,91.73
2022-07-31T22:03:21.599Z,88.63
2022-07-31T22:06:07.680Z,91.60
2022-07-31T22:08:36.162Z,95.27
2022-07-31T22:11:04.558Z,93.77
2022-07-31T22:13:34.205Z,88.80
2022-07-31T22:16:02.467Z,94.27
2022-07-31T22:18:31.114Z,91.07
2022-07-31T22:20:59.989Z,90.80
2022-07-31T22:23:28.658Z,90.83
2022-07-31T22:25:57.179Z,89.37
2022-07-31T22:28:26.428Z,91.40
2022-07-31T22:30:57.114Z,92.80
2022-07-31T22:33:25.635Z,92.23
2022-07-31T22:36:00.238Z,92.17
2022-07-31T22:38:29.625Z,91.30
2022-07-31T22:40:57.988Z,92.43
2022-07-31T22:44:12.995Z,91.00
2022-07-31T22:46:16.407Z,89.83
2022-07-31T22:48:46.310Z,88.90
2022-07-31T22:51:15.552Z,89.30
2022-07-31T22:53:44.490Z,94.03
2022-07-31T22:56:16.929Z,89.70
2022-07-31T22:58:45.147Z,89.97
2022-07-31T23:01:13.838Z,92.23
2022-07-31T23:03:43.442Z,91.33
2022-07-31T23:06:31.639Z,94.73
2022-07-31T23:08:59.891Z,87.10
2022-07-31T23:11:28.214Z,90.63
2022-07-31T23:13:56.515Z,92.63
2022-07-31T23:16:24.883Z,88.27
2022-07-31T23:18:54.682Z,91.23
2022-07-31T23:21:23.058Z,89.23
2022-07-31T23:23:51.722Z,88.27
2022-07-31T23:26:20.150Z,85.60
2022-07-31T23:28:48.499Z,84.50
2022-07-31T23:31:16.749Z,93.73
2022-07-31T23:33:45.425Z,87.53
2022-07-31T23:36:15.396Z,88.30
2022-07-31T23:38:43.703Z,89.60
2022-07-31T23:41:12.031Z,90.10
2022-07-31T23:43:39.556Z,90.53
2022-07-31T23:46:08.038Z,89.90
2022-07-31T23:48:36.501Z,82.73
2022-07-31T23:51:07.971Z,83.60
2022-07-31T23:53:37.963Z,82.37
2022-07-31T23:56:06.717Z,82.87
2022-07-31T23:58:47.601Z,91.03
